KCLE

Cleveland Hopkins International Airport

Airport
ICAO code
KCLE
IATA Code
CLE
Summary
ICAO Region
NAM
ICAO Territory
Location

Hopkins, OHIO

Serving
Cleveland
Elevation
800 ft
Coordinates
41° 24' 37" N , 81° 51' 10" W
KCC
Airport WX
Lake Effect Snow
Metar
Observation
KCLE 011251Z 19013KT 10SM CLR 13/08 A2941 RMK AO2 SLP975 T01330078 $
Station
Cleveland, Cleveland-Hopkins International Airport
Date/Time
2023-04-01 12:51:00
Wind direction
190°
Wind speed
13 kts
Lowest cloud amount
n/a
Temperature
13.3°C
Dew point
7.8°C
Humidity
69%
Weather condition
n/a

Description

Cleveland Hopkins International Airport is a public airport located 9 nm southwest of the central business district of Cleveland, a city in Cuyahoga County, Ohio, United States.

Airport map

Aerial View

SKYbrary Partners:

Safety knowledge contributed by: